Time;durP1;ratioP1;P1;durP2;ratioP2;P2;SDS_P1;SDS_P2;PMS_P1;PMS_P2;Temp;Humidity;BMP_temperature;BMP_pressure;BME280_temperature;BME280_humidity;BME280_pressure;Samples;Min_cycle;Max_cycle;Signal;HPM_P1;HPM_P2
2024/04/08 00:01:17;;;;;;;6.72;1.83;;;;;;;17.88;62.28;99450.34;6042818;23;20023;-87
2024/04/08 00:03:43;;;;;;;3.90;1.70;;;;;;;17.88;62.50;99453.00;6019151;23;20033;-87
2024/04/08 00:06:17;;;;;;;5.85;1.60;;;;;;;17.86;63.59;99442.50;6018882;23;20458;-87
2024/04/08 00:08:43;;;;;;;3.08;1.50;;;;;;;17.91;62.59;99428.78;6018975;23;20034;-87
2024/04/08 00:11:37;;;;;;;4.22;1.65;;;;;;;17.87;63.14;99425.53;6042633;23;20031;-87
2024/04/08 00:14:03;;;;;;;4.13;1.63;;;;;;;17.93;62.47;99417.00;6018958;23;20462;-87
2024/04/08 00:16:29;;;;;;;5.13;1.65;;;;;;;17.93;62.61;99410.81;6018975;23;20034;-87
2024/04/08 00:19:26;;;;;;;6.57;2.17;;;;;;;17.89;63.53;99409.41;6019045;23;20023;-87
2024/04/08 00:21:52;;;;;;;4.00;1.45;;;;;;;17.92;62.90;99414.47;6018999;23;20042;-87
2024/04/08 00:24:18;;;;;;;4.32;1.90;;;;;;;17.92;62.74;99422.44;6018981;23;20454;-87
2024/04/08 00:27:04;;;;;;;4.43;1.50;;;;;;;17.88;63.47;99434.38;6042604;23;20026;-87
2024/04/08 00:29:30;;;;;;;2.92;1.50;;;;;;;17.90;62.92;99422.59;6019015;23;20042;-87
2024/04/08 00:31:56;;;;;;;5.90;2.00;;;;;;;17.89;62.93;99418.25;6018871;23;20026;-88
2024/04/08 00:34:22;;;;;;;6.65;1.90;;;;;;;17.88;63.30;99403.28;6042274;23;20023;-87
2024/04/08 00:36:47;;;;;;;6.57;1.88;;;;;;;17.87;63.27;99384.78;6018961;23;20131;-87
2024/04/08 00:39:13;;;;;;;5.97;1.63;;;;;;;17.86;63.20;99401.75;6042260;23;20043;-87
2024/04/08 00:44:46;;;;;;;4.70;1.80;;;;;;;17.83;63.29;99393.03;6042354;23;20019;-87
2024/04/08 00:47:28;;;;;;;3.92;2.10;;;;;;;17.77;64.36;99396.28;6042309;23;20023;-87
2024/04/08 00:49:54;;;;;;;5.20;2.22;;;;;;;17.79;63.65;99388.97;6042125;23;20382;-87
2024/04/08 00:52:21;;;;;;;5.90;1.85;;;;;;;17.77;64.14;99393.63;6018584;23;20097;-87
2024/04/08 00:54:46;;;;;;;4.70;1.83;;;;;;;17.77;64.03;99393.63;6017245;23;20026;-87
2024/04/08 00:57:14;;;;;;;5.32;1.83;;;;;;;17.76;64.30;99391.94;6016926;23;20887;-87
2024/04/08 00:59:40;;;;;;;5.97;2.15;;;;;;;17.76;64.26;99410.56;6016484;23;20022;-87
2024/04/08 01:02:07;;;;;;;3.95;1.80;;;;;;;17.73;64.18;99418.00;6017004;23;20406;-87
2024/04/08 01:04:33;;;;;;;5.20;2.05;;;;;;;17.73;63.88;99431.31;6018305;23;20094;-87
2024/04/08 01:07:00;;;;;;;3.60;1.92;;;;;;;17.68;63.97;99448.53;6042169;23;20411;-87
2024/04/08 01:09:27;;;;;;;6.07;2.00;;;;;;;17.63;64.33;99434.81;6019022;23;20022;-87
2024/04/08 01:11:54;;;;;;;4.78;2.25;;;;;;;17.57;64.30;99448.72;6018496;23;20027;-87
2024/04/08 01:14:20;;;;;;;4.85;2.67;;;;;;;17.51;64.39;99443.94;6042317;23;20082;-87
2024/04/08 01:16:45;;;;;;;6.88;2.10;;;;;;;17.46;64.58;99465.66;6018557;23;20023;-87
2024/04/08 01:19:17;;;;;;;3.80;1.77;;;;;;;17.42;64.45;99458.94;6042263;23;20079;-88
2024/04/08 01:21:44;;;;;;;5.88;2.03;;;;;;;17.38;64.65;99473.50;6018848;23;20026;-87
2024/04/08 01:24:11;;;;;;;3.60;1.77;;;;;;;17.34;64.89;99448.97;6019096;23;20027;-87
2024/04/08 01:26:37;;;;;;;4.03;1.77;;;;;;;17.31;65.05;99443.94;6043154;23;20067;-87
2024/04/08 01:29:03;;;;;;;4.55;2.20;;;;;;;17.29;65.17;99436.09;6020228;23;20026;-87
2024/04/08 01:31:28;;;;;;;4.22;1.77;;;;;;;17.28;65.44;99439.75;6044012;23;20022;-87
2024/04/08 01:34:13;;;;;;;5.25;2.00;;;;;;;17.24;66.25;99433.03;6020179;23;20422;-87
2024/04/08 01:36:39;;;;;;;3.22;1.85;;;;;;;17.28;65.76;99431.75;6020484;23;20039;-87
2024/04/08 01:39:08;;;;;;;6.30;2.67;;;;;;;17.29;66.44;99437.91;6019954;23;20577;-88
2024/04/08 01:41:33;;;;;;;5.38;2.10;;;;;;;17.30;66.00;99448.41;6043694;23;20046;-87
2024/04/08 01:43:59;;;;;;;5.90;2.75;;;;;;;17.33;66.09;99463.25;6020146;23;20466;-87
2024/04/08 01:46:41;;;;;;;6.07;2.90;;;;;;;17.27;66.41;99480.59;6020468;23;20450;-87
2024/04/08 01:49:07;;;;;;;4.60;2.30;;;;;;;17.28;65.58;99466.34;6020075;23;20030;-87
2024/04/08 01:51:33;;;;;;;3.83;2.45;;;;;;;17.22;65.42;99453.59;6020119;23;20026;-87
2024/04/08 01:53:58;;;;;;;5.47;2.40;;;;;;;17.16;65.94;99451.50;6020189;23;20454;-88
2024/04/08 01:56:24;;;;;;;5.18;2.53;;;;;;;17.14;66.40;99445.44;6019994;23;20477;-87
2024/04/08 01:58:50;;;;;;;5.63;2.42;;;;;;;17.11;66.57;99440.41;6019542;23;20025;-87
2024/04/08 02:01:16;;;;;;;6.38;2.20;;;;;;;17.10;66.85;99434.25;6019929;23;20023;-88
2024/04/08 02:03:42;;;;;;;5.32;2.53;;;;;;;17.12;66.90;99431.47;6043508;23;20026;-88
2024/04/08 02:06:07;;;;;;;4.15;1.90;;;;;;;17.15;67.21;99433.81;6019657;23;20376;-87
2024/04/08 02:08:33;;;;;;;3.40;2.20;;;;;;;17.17;67.25;99437.22;6019775;23;20030;-87
2024/04/08 02:11:33;;;;;;;5.70;2.50;;;;;;;17.15;68.09;99444.47;6019687;23;20058;-87
2024/04/08 02:13:59;;;;;;;7.65;2.25;;;;;;;17.24;67.07;99443.66;6019607;23;20030;-87
2024/04/08 02:16:40;;;;;;;5.13;2.28;;;;;;;17.21;67.34;99435.94;6019909;23;20030;-87
2024/04/08 02:19:05;;;;;;;11.00;2.35;;;;;;;17.26;67.01;99431.06;6043182;23;20082;-87
2024/04/08 02:21:42;;;;;;;7.10;2.00;;;;;;;17.25;67.50;99426.72;6019798;23;20023;-87
2024/04/08 02:24:08;;;;;;;5.22;2.17;;;;;;;17.29;66.74;99433.44;6019709;23;20023;-87
2024/04/08 02:26:46;;;;;;;3.90;1.90;;;;;;;17.26;67.19;99439.03;6043297;23;20079;-86
2024/04/08 02:29:12;;;;;;;4.63;2.08;;;;;;;17.31;66.65;99422.66;6019556;23;20023;-87
2024/04/08 02:31:38;;;;;;;5.20;1.92;;;;;;;17.33;66.76;99420.69;6019830;23;20022;-87
2024/04/08 02:34:37;;;;;;;7.65;2.17;;;;;;;17.28;67.44;99418.47;6019651;23;20041;-87
2024/04/08 02:37:03;;;;;;;5.25;1.92;;;;;;;17.35;66.64;99417.91;6019907;23;20027;-87
2024/04/08 02:39:28;;;;;;;3.88;2.00;;;;;;;17.33;66.86;99410.06;6019846;23;20113;-87
2024/04/08 02:41:54;;;;;;;5.07;1.85;;;;;;;17.34;66.82;99406.41;6019767;23;20085;-87
2024/04/08 02:44:47;;;;;;;7.68;2.45;;;;;;;17.29;67.36;99400.66;6043531;23;20124;-87
2024/04/08 02:47:13;;;;;;;6.30;2.20;;;;;;;17.36;66.58;99403.59;6019755;23;20027;-87
2024/04/08 02:49:53;;;;;;;4.10;2.00;;;;;;;17.31;67.04;99414.69;6043111;23;20044;-87
2024/04/08 02:52:19;;;;;;;4.43;2.35;;;;;;;17.35;66.58;99416.09;6019675;23;20045;-87
2024/04/08 02:54:44;;;;;;;6.43;2.10;;;;;;;17.35;66.85;99416.09;6019681;23;20022;-87
2024/04/08 02:57:34;;;;;;;6.07;1.90;;;;;;;17.30;67.47;99402.34;6043239;23;20045;-86
2024/04/08 03:00:15;;;;;;;3.55;1.67;;;;;;;17.31;67.27;99401.38;6019381;23;20019;-87
2024/04/08 03:02:44;;;;;;;6.90;2.10;;;;;;;17.34;67.02;99377.13;6019652;23;20023;-87
2024/04/08 03:05:10;;;;;;;3.25;1.98;;;;;;;17.35;66.60;99373.53;6019522;23;20027;-87
2024/04/08 03:07:46;;;;;;;6.25;2.10;;;;;;;17.29;67.26;99382.03;6043155;23;20022;-87
2024/04/08 03:10:12;;;;;;;5.65;2.33;;;;;;;17.31;66.70;99380.94;6043168;23;20023;-87
2024/04/08 03:12:37;;;;;;;3.20;1.83;;;;;;;17.28;66.80;99370.59;6019483;23;20030;-87
2024/04/08 03:15:03;;;;;;;4.03;1.77;;;;;;;17.26;66.89;99356.56;6019481;23;20354;-87
2024/04/08 03:17:29;;;;;;;6.28;2.72;;;;;;;17.24;66.77;99347.06;6019534;23;20058;-86
2024/04/08 03:23:22;;;;;;;6.05;2.42;;;;;;;17.13;66.76;99351.56;6042930;23;20086;-87
2024/04/08 03:25:55;;;;;;;4.15;2.03;;;;;;;17.09;66.99;99343.97;6042843;23;20034;-87
2024/04/08 03:28:21;;;;;;;4.50;1.73;;;;;;;17.05;67.01;99351.41;6019322;23;20485;-87
2024/04/08 03:30:47;;;;;;;5.32;1.95;;;;;;;17.02;67.45;99347.19;6019177;23;20022;-87
2024/04/08 03:33:13;;;;;;;3.53;1.77;;;;;;;17.00;67.39;99330.50;6019199;23;20049;-87
2024/04/08 03:35:41;;;;;;;6.03;1.85;;;;;;;16.97;67.83;99306.84;6043028;23;20022;-87
2024/04/08 03:38:07;;;;;;;4.72;1.98;;;;;;;16.96;67.16;99305.19;6019271;23;20023;-86
2024/04/08 03:40:33;;;;;;;3.63;1.75;;;;;;;16.92;67.32;99322.38;6019256;23;20031;-87
2024/04/08 03:42:59;;;;;;;3.03;1.70;;;;;;;16.87;67.67;99321.97;6019137;23;20045;-87
2024/04/08 03:45:25;;;;;;;5.03;1.83;;;;;;;16.84;67.67;99312.47;6019479;23;20022;-87
2024/04/08 03:47:50;;;;;;;3.28;1.40;;;;;;;16.84;67.66;99330.22;6019566;23;20354;-87
2024/04/08 03:50:31;;;;;;;3.58;1.65;;;;;;;16.78;68.35;99326.28;6042517;23;20027;-87
2024/04/08 03:52:57;;;;;;;6.93;2.08;;;;;;;16.82;67.77;99313.59;6042780;23;20023;-87
2024/04/08 03:55:25;;;;;;;5.35;1.58;;;;;;;16.80;67.68;99317.22;6018955;23;20029;-86
2024/04/08 03:58:10;;;;;;;3.63;1.90;;;;;;;16.75;68.28;99298.19;6042742;23;20033;-87
2024/04/08 04:00:38;;;;;;;5.20;1.95;;;;;;;16.77;68.02;99288.25;6018890;23;20022;-87
2024/04/08 04:03:04;;;;;;;4.57;1.80;;;;;;;16.75;67.67;99279.56;6019068;23;20459;-87
2024/04/08 04:05:55;;;;;;;3.90;1.70;;;;;;;16.67;68.35;99268.78;6019076;23;20027;-87
2024/04/08 04:08:21;;;;;;;5.65;1.85;;;;;;;16.70;67.79;99265.88;6018983;23;20019;-87
2024/04/08 04:10:47;;;;;;;2.85;1.40;;;;;;;16.68;67.55;99276.63;6018904;23;20071;-87
2024/04/08 04:13:22;;;;;;;5.38;1.80;;;;;;;16.64;68.53;99295.66;6019145;23;20409;-86
2024/04/08 04:15:48;;;;;;;5.40;1.60;;;;;;;16.67;67.89;99298.88;6019383;23;20022;-87
2024/04/08 04:18:17;;;;;;;4.93;2.05;;;;;;;16.65;68.29;99289.38;6019061;23;20023;-87
2024/04/08 04:20:45;;;;;;;5.75;2.13;;;;;;;16.64;68.15;99283.19;6018849;23;20027;-86
2024/04/08 04:23:14;;;;;;;3.35;1.88;;;;;;;16.64;68.13;99287.69;6042548;23;20498;-87
2024/04/08 04:26:27;;;;;;;5.57;2.05;;;;;;;16.59;68.69;99290.75;6019048;23;20358;-88
2024/04/08 04:28:52;;;;;;;2.90;1.75;;;;;;;16.63;68.09;99291.34;6018737;23;20023;-86
2024/04/08 04:31:18;;;;;;;6.55;1.80;;;;;;;16.61;68.28;99294.13;6018891;23;20093;-86
2024/04/08 04:34:03;;;;;;;4.40;2.00;;;;;;;16.57;68.95;99289.22;6019204;23;20070;-87
2024/04/08 04:36:28;;;;;;;5.82;1.83;;;;;;;16.60;68.48;99287.13;6018779;23;20026;-87
2024/04/08 04:39:17;;;;;;;5.43;2.28;;;;;;;16.55;68.90;99278.72;6019588;23;20069;-87
2024/04/08 04:41:43;;;;;;;3.83;2.35;;;;;;;16.58;68.58;99277.59;6044599;23;20349;-87
2024/04/08 04:44:09;;;;;;;5.43;2.35;;;;;;;16.56;68.45;99284.88;6020828;23;20022;-86
2024/04/08 04:46:42;;;;;;;5.30;2.40;;;;;;;16.51;69.14;99286.13;6044399;23;20023;-87
2024/04/08 04:49:08;;;;;;;3.53;2.20;;;;;;;16.53;68.72;99286.81;6020543;23;20027;-87
2024/04/08 04:51:34;;;;;;;6.95;2.47;;;;;;;16.52;68.89;99282.50;6020841;23;20534;-87
2024/04/08 04:54:10;;;;;;;7.72;2.63;;;;;;;16.49;69.72;99295.22;6020782;23;20051;-87
2024/04/08 04:56:35;;;;;;;6.30;3.03;;;;;;;16.52;68.91;99294.97;6020740;23;20354;-86
2024/04/08 04:59:13;;;;;;;5.97;3.30;;;;;;;16.47;69.86;99298.03;6020482;23;20033;-87
2024/04/08 05:02:26;;;;;;;9.13;3.42;;;;;;;16.48;69.81;99301.53;6020664;23;20090;-87
2024/04/08 05:04:52;;;;;;;7.53;3.60;;;;;;;16.51;69.09;99293.25;6020586;23;20023;-86
2024/04/08 05:07:18;;;;;;;8.43;3.00;;;;;;;16.49;69.43;99296.03;6020555;23;20023;-87
2024/04/08 05:10:00;;;;;;;7.25;3.50;;;;;;;16.45;70.33;99297.28;6043952;23;20037;-87
2024/04/08 05:12:25;;;;;;;8.73;3.80;;;;;;;16.48;69.24;99286.41;6044223;23;20046;-87
2024/04/08 05:14:51;;;;;;;7.47;3.50;;;;;;;16.47;69.65;99287.38;6020993;23;20023;-87
2024/04/08 05:17:52;;;;;;;11.07;3.78;;;;;;;16.42;70.29;99294.94;6020692;23;20116;-87
2024/04/08 05:20:17;;;;;;;6.93;3.63;;;;;;;16.49;69.70;99289.91;6020316;23;20070;-87
2024/04/08 05:22:58;;;;;;;6.45;3.80;;;;;;;16.44;70.39;99292.97;6044220;23;20482;-86
2024/04/08 05:25:24;;;;;;;10.43;3.53;;;;;;;16.50;69.89;99286.28;6020768;23;20023;-86
2024/04/08 05:27:51;;;;;;;7.82;3.58;;;;;;;16.51;70.13;99283.47;6020537;23;20027;-92
2024/04/08 05:30:16;;;;;;;6.47;3.53;;;;;;;16.52;70.21;99287.81;6020493;23;20082;-86
2024/04/08 05:32:42;;;;;;;10.25;3.92;;;;;;;16.55;70.45;99297.31;6043997;23;20030;-86
2024/04/08 05:35:23;;;;;;;6.75;3.80;;;;;;;16.54;71.10;99304.47;6020725;23;20023;-87
2024/04/08 05:37:49;;;;;;;7.70;3.70;;;;;;;16.63;70.37;99301.97;6020145;23;20399;-86
2024/04/08 05:40:16;;;;;;;5.70;3.45;;;;;;;16.66;70.67;99307.84;6020080;23;20023;-86
2024/04/08 05:42:43;;;;;;;7.00;3.92;;;;;;;16.71;70.37;99309.25;6020309;23;20473;-86
2024/04/08 05:45:12;;;;;;;9.15;3.70;;;;;;;16.75;70.53;99305.31;6019880;23;20769;-86
2024/04/08 05:48:16;;;;;;;7.90;3.70;;;;;;;16.78;70.77;99308.53;6043622;23;20027;-86
2024/04/08 05:50:42;;;;;;;6.90;3.50;;;;;;;16.88;69.99;99299.72;6019514;23;20355;-86
2024/04/08 05:53:07;;;;;;;7.47;3.67;;;;;;;16.90;70.07;99287.97;6043662;23;20023;-85
2024/04/08 05:56:06;;;;;;;7.18;3.92;;;;;;;16.88;70.26;99289.94;6043701;23;20082;-86
2024/04/08 05:58:32;;;;;;;7.53;4.00;;;;;;;16.94;69.74;99268.09;6043550;23;20019;-85
2024/04/08 06:00:58;;;;;;;8.63;4.00;;;;;;;16.95;69.72;99268.94;6043260;23;20074;-85
2024/04/08 06:03:46;;;;;;;11.40;4.22;;;;;;;16.90;70.18;99276.50;6019869;23;20153;-85
2024/04/08 06:06:16;;;;;;;5.95;3.35;;;;;;;16.93;70.28;99286.84;6020116;23;20023;-86
2024/04/08 06:09:10;;;;;;;6.15;3.90;;;;;;;16.90;70.44;99287.97;6019834;23;20030;-86
2024/04/08 06:11:36;;;;;;;7.70;3.80;;;;;;;16.95;70.26;99284.91;6020176;23;20023;-86
2024/04/08 06:14:28;;;;;;;8.98;3.83;;;;;;;16.93;70.80;99287.69;6043637;23;20030;-85
2024/04/08 06:16:53;;;;;;;10.55;4.38;;;;;;;17.01;70.55;99265.72;6019889;23;20026;-85
2024/04/08 06:19:19;;;;;;;9.05;4.28;;;;;;;17.06;70.67;99271.50;6019815;23;20046;-85
2024/04/08 06:21:48;;;;;;;13.23;4.15;;;;;;;17.10;70.98;99272.03;6019691;23;20462;-86
2024/04/08 06:24:14;;;;;;;5.63;3.95;;;;;;;17.15;70.69;99269.78;6020013;23;20027;-85
2024/04/08 06:26:40;;;;;;;8.95;3.97;;;;;;;17.21;71.28;99279.03;6043444;23;20023;-86
2024/04/08 06:29:19;;;;;;;6.10;3.25;;;;;;;17.25;71.15;99272.44;6043171;23;20045;-86
2024/04/08 06:31:45;;;;;;;8.50;4.30;;;;;;;17.36;71.13;99271.44;6019629;23;20045;-85
2024/04/08 06:34:11;;;;;;;6.28;3.67;;;;;;;17.42;71.07;99270.03;6019732;23;20019;-86
2024/04/08 06:36:54;;;;;;;5.72;4.00;;;;;;;17.45;70.29;99272.38;6019538;23;20023;-86
2024/04/08 06:39:20;;;;;;;10.35;4.13;;;;;;;17.56;70.07;99276.69;6042770;23;20027;-86
2024/04/08 06:42:00;;;;;;;4.20;3.10;;;;;;;17.54;70.14;99281.34;6043142;23;20402;-86
2024/04/08 06:44:26;;;;;;;7.57;3.42;;;;;;;17.61;69.92;99281.59;6043012;23;20026;-86
2024/04/08 06:47:02;;;;;;;5.10;3.10;;;;;;;17.60;69.70;99274.59;6019484;23;20102;-86
2024/04/08 06:49:28;;;;;;;9.25;3.50;;;;;;;17.65;69.54;99273.16;6019478;23;20086;-86
2024/04/08 06:52:00;;;;;;;6.97;2.90;;;;;;;17.65;69.55;99269.69;6019426;23;20026;-86
2024/04/08 06:54:26;;;;;;;7.78;3.80;;;;;;;17.67;69.46;99273.00;6019392;23;20042;-86
2024/04/08 06:56:51;;;;;;;5.78;3.22;;;;;;;17.67;69.38;99267.69;6019245;23;20097;-86
2024/04/08 06:59:30;;;;;;;6.65;3.60;;;;;;;17.62;69.15;99268.16;6019511;23;20023;-86
2024/04/08 07:01:57;;;;;;;5.78;3.28;;;;;;;17.65;68.93;99273.16;6018797;23;20026;-86
2024/04/08 07:04:29;;;;;;;10.05;3.55;;;;;;;17.61;68.89;99278.94;6019229;23;20033;-86
2024/04/08 07:06:54;;;;;;;5.22;3.28;;;;;;;17.60;69.07;99277.25;6019350;23;20481;-86
2024/04/08 07:09:32;;;;;;;6.95;3.50;;;;;;;17.54;68.97;99289.31;6042588;23;20027;-86
2024/04/08 07:11:59;;;;;;;4.78;2.92;;;;;;;17.55;69.01;99291.84;6019502;23;20029;-86
2024/04/08 07:14:25;;;;;;;7.03;3.25;;;;;;;17.56;69.14;99296.16;6042884;23;20078;-86
2024/04/08 07:16:51;;;;;;;6.70;3.03;;;;;;;17.57;69.26;99305.00;6019406;23;20022;-86
2024/04/08 07:22:38;;;;;;;7.10;2.97;;;;;;;17.66;69.52;99303.28;6042867;23;20023;-86
2024/04/08 07:25:04;;;;;;;5.53;3.13;;;;;;;17.70;69.82;99307.34;6043123;23;20027;-86
2024/04/08 07:27:38;;;;;;;8.10;2.58;;;;;;;17.73;69.35;99291.09;6019292;23;20090;-86
2024/04/08 07:30:04;;;;;;;8.07;3.53;;;;;;;17.81;69.69;99285.88;6042603;23;20027;-86
2024/04/08 07:33:02;;;;;;;7.03;2.83;;;;;;;17.84;69.67;99292.72;6019740;23;20030;-86
2024/04/08 07:35:27;;;;;;;7.15;3.00;;;;;;;17.95;69.88;99292.50;6019239;23;20454;-87
2024/04/08 07:37:54;;;;;;;5.75;3.00;;;;;;;18.01;69.97;99292.94;6019166;23;20086;-86
2024/04/08 07:40:20;;;;;;;5.43;2.83;;;;;;;18.10;70.10;99306.22;6018981;23;20054;-86
2024/04/08 07:42:58;;;;;;;6.35;3.05;;;;;;;18.16;70.15;99301.31;6042952;23;20033;-86
2024/04/08 07:45:24;;;;;;;5.70;3.03;;;;;;;18.30;69.94;99302.63;6042729;23;20038;-86
2024/04/08 07:47:50;;;;;;;7.53;3.10;;;;;;;18.39;69.76;99304.38;6019234;23;20477;-86
2024/04/08 07:50:54;;;;;;;5.65;2.67;;;;;;;18.48;69.08;99307.97;6042377;23;20026;-86
2024/04/08 07:53:20;;;;;;;6.25;3.00;;;;;;;18.65;69.40;99305.50;6019202;23;20085;-86
2024/04/08 07:55:54;;;;;;;4.30;3.15;;;;;;;18.69;68.17;99305.03;6042432;23;20030;-87
2024/04/08 07:58:20;;;;;;;7.72;3.10;;;;;;;18.80;68.48;99290.63;6042532;23;20026;-86
2024/04/08 08:00:59;;;;;;;8.02;2.75;;;;;;;18.84;67.17;99293.84;6018998;23;20030;-86
2024/04/08 08:03:36;;;;;;;5.95;2.90;;;;;;;18.89;66.80;99299.56;6042675;23;20462;-87
2024/04/08 08:06:02;;;;;;;4.68;2.92;;;;;;;18.95;67.66;99288.25;6042719;23;20027;-86
2024/04/08 08:08:42;;;;;;;6.10;2.85;;;;;;;18.93;66.67;99294.75;6042530;23;20034;-87
2024/04/08 08:11:08;;;;;;;9.45;2.75;;;;;;;18.98;67.54;99284.44;6019132;23;20096;-86
2024/04/08 08:13:53;;;;;;;6.10;2.97;;;;;;;18.96;67.31;99289.09;6018707;23;20027;-87
2024/04/08 08:16:19;;;;;;;5.32;3.10;;;;;;;19.04;67.78;99281.19;6042449;23;20027;-87
2024/04/08 08:18:47;;;;;;;7.55;2.95;;;;;;;19.07;67.59;99283.56;6018805;23;20773;-86
2024/04/08 08:21:59;;;;;;;6.03;3.13;;;;;;;19.09;66.80;99267.38;6019375;23;20023;-87
2024/04/08 08:24:25;;;;;;;4.93;2.38;;;;;;;19.19;67.08;99270.81;6018764;23;20023;-86
2024/04/08 08:26:50;;;;;;;6.40;2.35;;;;;;;19.21;67.06;99263.47;6018868;23;20103;-86
2024/04/08 08:29:50;;;;;;;4.50;1.90;;;;;;;19.20;66.72;99260.97;6018632;23;20347;-87
2024/04/08 08:32:17;;;;;;;6.40;2.40;;;;;;;19.29;67.17;99254.72;6019017;23;20342;-86
2024/04/08 08:38:10;;;;;;;4.45;2.50;;;;;;;19.36;67.53;99257.59;6042361;23;20350;-87
2024/04/08 08:41:06;;;;;;;7.43;2.42;;;;;;;19.34;66.99;99251.56;6018741;23;20102;-86
2024/04/08 08:43:34;;;;;;;9.35;2.78;;;;;;;19.40;67.08;99249.09;6042506;23;20019;-87
2024/04/08 08:46:14;;;;;;;6.53;2.20;;;;;;;19.39;66.84;99238.56;6018738;23;20078;-86
2024/04/08 08:48:43;;;;;;;8.18;2.42;;;;;;;19.48;67.92;99242.13;6019156;23;20023;-87
2024/04/08 08:51:11;;;;;;;4.97;2.03;;;;;;;19.52;67.48;99238.97;6042509;23;20383;-86
2024/04/08 08:53:36;;;;;;;3.40;2.30;;;;;;;19.60;67.68;99238.22;6042504;23;20030;-87
2024/04/08 08:56:08;;;;;;;5.05;2.67;;;;;;;19.66;67.63;99242.06;6018960;23;20027;-87
2024/04/08 08:58:34;;;;;;;5.00;2.28;;;;;;;19.76;68.23;99242.78;6042467;23;20049;-87
2024/04/08 09:01:38;;;;;;;4.22;2.60;;;;;;;19.81;66.49;99255.63;6042260;23;20019;-86
2024/04/08 09:04:14;;;;;;;6.20;2.47;;;;;;;19.93;66.91;99256.22;6018546;23;20626;-86
2024/04/08 09:07:04;;;;;;;4.72;2.30;;;;;;;20.01;65.72;99244.75;6019142;23;20023;-86
2024/04/08 09:09:29;;;;;;;5.30;2.33;;;;;;;20.14;66.93;99245.13;6018524;23;20023;-87
2024/04/08 09:11:56;;;;;;;5.55;2.50;;;;;;;20.22;67.25;99241.63;6018590;23;20346;-86
2024/04/08 09:14:22;;;;;;;6.72;2.33;;;;;;;20.33;66.88;99251.16;6018941;23;20019;-87
2024/04/08 09:16:49;;;;;;;5.05;2.25;;;;;;;20.43;67.20;99249.19;6018922;23;20080;-87
2024/04/08 09:19:26;;;;;;;8.45;2.42;;;;;;;20.53;66.27;99253.56;6018335;23;20358;-86
2024/04/08 09:21:52;;;;;;;5.38;2.53;;;;;;;20.69;66.66;99252.72;6018817;23;20454;-86
2024/04/08 09:24:45;;;;;;;4.82;2.28;;;;;;;20.78;65.94;99259.75;6018758;23;20117;-87
2024/04/08 09:27:11;;;;;;;6.45;2.38;;;;;;;20.95;66.61;99271.34;6020506;23;20019;-87
2024/04/08 09:29:56;;;;;;;4.70;2.25;;;;;;;21.02;64.43;99270.66;6020113;23;20395;-87
2024/04/08 09:32:21;;;;;;;6.38;2.08;;;;;;;21.16;65.29;99253.91;6020290;23;20018;-87
2024/04/08 09:34:47;;;;;;;5.22;2.47;;;;;;;21.23;65.07;99248.72;6020376;23;20030;-86
2024/04/08 09:37:14;;;;;;;6.47;2.70;;;;;;;21.30;64.40;99240.88;6020169;23;20401;-86
2024/04/08 09:39:40;;;;;;;5.70;2.35;;;;;;;21.35;64.54;99236.66;6019999;23;20027;-86
2024/04/08 09:42:12;;;;;;;4.13;2.30;;;;;;;21.40;64.07;99233.47;6020265;23;20649;-87
2024/04/08 09:45:22;;;;;;;6.78;2.10;;;;;;;21.46;63.36;99237.31;6020059;23;20019;-87
2024/04/08 09:47:49;;;;;;;6.30;2.38;;;;;;;21.58;63.62;99237.78;6020034;23;20466;-86
2024/04/08 09:50:16;;;;;;;4.38;2.25;;;;;;;21.62;63.07;99223.03;6019911;23;20045;-87
2024/04/08 09:53:03;;;;;;;5.50;2.10;;;;;;;21.60;62.48;99193.72;6043730;23;20455;-86
2024/04/08 09:55:29;;;;;;;4.15;2.22;;;;;;;21.71;63.61;99175.59;6020218;23;20022;-87
2024/04/08 09:58:01;;;;;;;4.78;3.03;;;;;;;21.70;63.03;99164.06;6019910;23;20514;-87
2024/04/08 10:00:46;;;;;;;7.57;3.20;;;;;;;21.74;62.98;99175.28;6019827;23;20454;-87
2024/04/08 10:03:24;;;;;;;6.65;3.00;;;;;;;21.80;62.92;99185.31;6043544;23;20450;-87
2024/04/08 10:05:51;;;;;;;4.07;2.90;;;;;;;21.90;63.96;99184.28;6019892;23;20074;-86
2024/04/08 10:08:17;;;;;;;4.97;2.95;;;;;;;21.96;63.99;99173.69;6043703;23;20026;-86
2024/04/08 10:11:03;;;;;;;8.25;3.00;;;;;;;22.02;63.01;99184.69;6020121;23;20026;-87
2024/04/08 10:13:28;;;;;;;3.70;2.63;;;;;;;22.16;63.74;99181.25;6043716;23;20030;-87
2024/04/08 10:16:10;;;;;;;6.18;3.05;;;;;;;22.22;62.12;99175.19;6020003;23;20027;-86
2024/04/08 10:18:47;;;;;;;4.18;3.03;;;;;;;22.32;61.89;99174.13;6019746;23;20023;-86
2024/04/08 10:21:14;;;;;;;5.60;2.58;;;;;;;22.42;62.00;99189.97;6043488;23;20045;-87
2024/04/08 10:23:42;;;;;;;5.68;2.67;;;;;;;22.46;61.18;99197.47;6043491;23;20023;-87
2024/04/08 10:26:26;;;;;;;9.07;3.08;;;;;;;22.41;59.70;99199.84;6019987;23;20022;-87
2024/04/08 10:28:53;;;;;;;6.65;2.50;;;;;;;22.46;60.67;99199.34;6019954;23;20450;-87
2024/04/08 10:32:08;;;;;;;5.68;2.28;;;;;;;22.45;60.89;99181.53;6024170;23;20110;-87
2024/04/08 10:34:35;;;;;;;6.20;2.50;;;;;;;22.39;61.28;99186.63;6019696;23;20094;-87
2024/04/08 10:37:01;;;;;;;8.40;2.63;;;;;;;22.38;61.53;99179.59;6019878;23;20086;-87
2024/04/08 10:39:28;;;;;;;6.15;2.92;;;;;;;22.41;62.24;99178.41;6019429;23;20399;-87
2024/04/08 10:42:28;;;;;;;5.40;2.58;;;;;;;22.46;62.17;99181.38;6019563;23;20034;-87
2024/04/08 10:44:54;;;;;;;7.28;2.72;;;;;;;22.65;62.91;99182.75;6043518;23;20027;-87
2024/04/08 10:47:20;;;;;;;7.38;2.60;;;;;;;22.78;61.96;99203.63;6019550;23;20023;-86
2024/04/08 10:50:10;;;;;;;5.05;2.45;;;;;;;22.87;60.45;99188.28;6043256;23;20060;-87
2024/04/08 10:52:39;;;;;;;4.00;2.08;;;;;;;23.05;60.27;99192.47;6019701;23;20029;-87
2024/04/08 10:59:24;;;;;;;6.30;3.00;;;;;;;23.34;60.50;99214.19;6068108;23;20146;-87
2024/04/08 11:01:49;;;;;;;7.65;2.53;;;;;;;23.51;60.87;99202.22;6019109;23;20030;-87
2024/04/08 11:04:19;;;;;;;4.78;2.28;;;;;;;23.60;59.75;99210.19;6042658;23;20082;-87
2024/04/08 11:06:59;;;;;;;6.30;2.65;;;;;;;23.66;57.98;99202.22;6019480;23;20634;-87
2024/04/08 11:09:25;;;;;;;3.65;2.30;;;;;;;23.74;58.71;99190.53;6019207;23;20027;-87
2024/04/08 11:12:04;;;;;;;6.28;2.47;;;;;;;23.73;57.13;99180.81;6019655;23;20082;-87
2024/04/08 11:14:30;;;;;;;3.85;2.42;;;;;;;23.81;58.76;99169.13;6042960;23;20019;-87
2024/04/08 11:17:01;;;;;;;6.57;2.55;;;;;;;23.81;58.60;99169.13;6019180;23;20398;-87
2024/04/08 11:20:08;;;;;;;17.00;3.05;;;;;;;23.73;57.55;99172.75;6042926;23;20023;-87
2024/04/08 11:22:34;;;;;;;6.20;2.80;;;;;;;23.78;58.55;99173.00;6019385;23;20022;-87
2024/04/08 11:25:20;;;;;;;5.65;2.55;;;;;;;23.76;57.46;99177.75;6019268;23;20082;-87
2024/04/08 11:27:46;;;;;;;5.40;2.30;;;;;;;23.91;59.95;99179.56;6019579;23;20075;-87
2024/04/08 11:30:16;;;;;;;7.75;2.38;;;;;;;24.14;60.06;99178.63;6042640;23;20098;-87
2024/04/08 11:32:47;;;;;;;4.43;2.50;;;;;;;24.51;59.99;99182.06;6018994;23;20031;-87
2024/04/08 11:35:12;;;;;;;7.03;2.50;;;;;;;25.00;62.90;99184.94;6018889;23;20023;-87
2024/04/08 11:37:40;;;;;;;3.67;2.13;;;;;;;25.50;59.78;99186.72;6018926;23;20479;-87
2024/04/08 11:40:07;;;;;;;5.40;2.38;;;;;;;25.95;59.16;99175.50;6042437;23;20019;-87
2024/04/08 11:42:52;;;;;;;4.78;1.98;;;;;;;26.30;56.10;99169.16;6019138;23;20030;-87
2024/04/08 11:45:17;;;;;;;4.70;2.63;;;;;;;26.58;55.72;99165.47;6042452;23;20032;-87
2024/04/08 11:47:43;;;;;;;5.00;2.90;;;;;;;26.69;54.54;99176.66;6018900;23;20425;-88
2024/04/08 11:50:37;;;;;;;6.13;2.65;;;;;;;26.68;52.55;99186.63;6042330;23;20027;-87
2024/04/08 11:53:03;;;;;;;5.35;2.63;;;;;;;26.71;52.58;99175.41;6019048;23;20019;-87
2024/04/08 11:55:29;;;;;;;5.40;2.20;;;;;;;26.61;51.87;99180.41;6042637;23;20425;-87
2024/04/08 11:58:18;;;;;;;7.32;2.35;;;;;;;26.39;51.42;99178.72;6018956;23;20101;-87
2024/04/08 12:00:44;;;;;;;9.43;2.22;;;;;;;26.31;51.98;99173.53;6019014;23;20031;-87
2024/04/08 12:03:10;;;;;;;7.63;2.60;;;;;;;26.14;52.47;99170.38;6019103;23;20062;-87
2024/04/08 12:05:56;;;;;;;8.88;2.58;;;;;;;25.89;51.60;99166.38;6042654;23;20394;-87
2024/04/08 12:08:22;;;;;;;8.85;2.75;;;;;;;25.79;52.17;99174.00;6037818;23;20028;-88
2024/04/08 12:10:50;;;;;;;8.07;2.88;;;;;;;25.58;51.60;99178.50;6014234;23;20022;-87
2024/04/08 12:13:18;;;;;;;7.88;2.33;;;;;;;25.39;51.73;99163.84;6014331;23;20024;-87
2024/04/08 12:15:47;;;;;;;5.15;2.55;;;;;;;25.22;52.08;99172.25;6014237;23;20031;-87